Time;durP1;ratioP1;P1;durP2;ratioP2;P2;SDS_P1;SDS_P2;PMS_P1;PMS_P2;Temp;Humidity;BMP_temperature;BMP_pressure;BME280_temperature;BME280_humidity;BME280_pressure;Samples;Min_cycle;Max_cycle;Signal;HPM_P1;HPM_P2
2022/02/23 03:46:59;;;;;;;4.70;1.23;;;9.30;91.90;;;;;;6301568;22;20014;-81
2022/02/23 03:49:25;;;;;;;18.63;1.88;;;9.30;91.50;;;;;;6295398;22;20027;-81
2022/02/23 03:51:51;;;;;;;4.03;1.52;;;9.30;91.60;;;;;;6295388;22;20026;-81
2022/02/23 03:54:17;;;;;;;3.53;1.30;;;9.40;91.40;;;;;;6244368;22;20030;-81
2022/02/23 03:56:46;;;;;;;4.20;1.35;;;9.40;91.10;;;;;;6295164;22;20030;-81
2022/02/23 03:59:13;;;;;;;5.53;1.23;;;9.40;91.30;;;;;;6321261;22;20294;-81
2022/02/23 04:01:40;;;;;;;;;;;9.40;91.10;;;;;;6295608;22;20010;-81
2022/02/23 04:04:07;;;;;;;3.35;1.20;;;9.40;91.10;;;;;;6321021;22;20071;-81
2022/02/23 04:06:36;;;;;;;7.05;1.77;;;9.40;91.10;;;;;;6321366;22;20007;-81
2022/02/23 04:09:08;;;;;;;8.52;2.08;;;9.40;91.20;;;;;;6295118;22;20347;-82
2022/02/23 04:11:34;;;;;;;2.80;1.00;;;9.40;91.20;;;;;;6295170;22;20007;-81
2022/02/23 04:14:01;;;;;;;3.93;1.93;;;9.40;91.30;;;;;;6244276;22;20102;-80
2022/02/23 04:16:27;;;;;;;5.75;1.23;;;9.40;91.10;;;;;;6294974;22;20010;-80
2022/02/23 04:18:53;;;;;;;3.92;1.05;;;9.40;91.30;;;;;;6295289;22;20010;-81
2022/02/23 04:21:20;;;;;;;4.30;0.80;;;9.50;91.40;;;;;;6295510;22;20014;-81
2022/02/23 04:23:46;;;;;;;4.10;1.30;;;9.50;91.70;;;;;;6269643;22;20011;-81
2022/02/23 04:26:12;;;;;;;4.05;1.40;;;9.50;92.40;;;;;;6295039;22;20046;-82
2022/02/23 04:28:38;;;;;;;3.80;1.58;;;9.50;93.10;;;;;;6269777;22;19998;-81
2022/02/23 04:31:04;;;;;;;7.40;1.38;;;9.40;93.70;;;;;;6269650;22;20017;-83
2022/02/23 04:33:30;;;;;;;4.25;1.63;;;9.40;94.80;;;;;;6244396;22;20011;-82
2022/02/23 04:35:57;;;;;;;3.47;1.55;;;9.30;95.70;;;;;;6295687;22;20063;-81
2022/02/23 04:38:23;;;;;;;6.78;1.73;;;9.30;95.80;;;;;;6295808;22;20025;-80
2022/02/23 04:40:49;;;;;;;4.43;1.27;;;9.20;96.00;;;;;;6295570;22;20007;-82
2022/02/23 04:43:16;;;;;;;3.53;1.20;;;9.10;95.50;;;;;;6295360;22;20010;-80
2022/02/23 04:45:42;;;;;;;4.87;1.17;;;9.20;95.40;;;;;;6301259;22;20206;-81
2022/02/23 04:48:08;;;;;;;2.25;1.15;;;9.20;95.40;;;;;;6326455;22;20251;-81
2022/02/23 04:50:34;;;;;;;2.47;1.10;;;9.20;95.10;;;;;;6325690;22;20070;-81
2022/02/23 04:53:00;;;;;;;5.45;1.40;;;9.20;94.90;;;;;;6300235;22;20112;-81
2022/02/23 04:55:26;;;;;;;2.70;1.00;;;9.30;94.70;;;;;;6325719;22;20236;-81
2022/02/23 04:57:52;;;;;;;4.30;1.30;;;9.30;94.60;;;;;;6325964;22;20033;-81
2022/02/23 05:00:18;;;;;;;6.20;1.17;;;9.30;94.40;;;;;;6325744;22;20206;-81
2022/02/23 05:02:43;;;;;;;3.83;1.05;;;9.30;94.50;;;;;;6325536;22;20309;-81
2022/02/23 05:05:10;;;;;;;3.17;1.05;;;9.30;94.20;;;;;;6351742;22;20317;-82
2022/02/23 05:07:36;;;;;;;4.70;1.20;;;9.40;94.00;;;;;;6325573;22;20055;-82
2022/02/23 05:10:03;;;;;;;3.65;1.33;;;9.40;94.10;;;;;;6326035;22;20006;-81
2022/02/23 05:12:30;;;;;;;;;;;9.40;93.60;;;;;;6326054;22;20073;-80
2022/02/23 05:14:57;;;;;;;2.92;1.20;;;9.50;93.70;;;;;;6325670;22;19906;-81
2022/02/23 05:17:23;;;;;;;7.78;1.55;;;9.50;93.60;;;;;;6326030;22;20022;-82
2022/02/23 05:19:48;;;;;;;2.67;0.90;;;9.50;93.40;;;;;;6299982;22;20025;-81
2022/02/23 05:22:15;;;;;;;3.28;1.33;;;9.60;93.40;;;;;;6300606;22;20079;-81
2022/02/23 05:24:40;;;;;;;3.63;1.20;;;9.60;93.20;;;;;;6300316;22;20017;-81
2022/02/23 05:27:06;;;;;;;4.30;1.50;;;9.60;93.20;;;;;;6299929;22;20069;-81
2022/02/23 05:29:32;;;;;;;2.22;0.82;;;9.60;93.10;;;;;;6326016;22;20186;-81
2022/02/23 05:31:58;;;;;;;4.72;1.05;;;9.60;93.20;;;;;;6325749;22;20010;-81
2022/02/23 05:34:24;;;;;;;4.70;1.27;;;9.60;93.20;;;;;;6352189;22;20047;-80
2022/02/23 05:36:50;;;;;;;3.10;1.20;;;9.60;93.00;;;;;;6325746;22;20006;-81
2022/02/23 05:39:17;;;;;;;2.47;1.20;;;9.50;93.10;;;;;;6325644;22;20013;-80
2022/02/23 05:41:43;;;;;;;3.47;1.13;;;9.60;93.10;;;;;;6351675;22;20201;-80
2022/02/23 05:44:09;;;;;;;2.20;0.87;;;9.50;93.10;;;;;;6325433;22;20055;-81
2022/02/23 05:46:35;;;;;;;3.28;0.98;;;9.60;93.20;;;;;;6335151;22;20263;-81
2022/02/23 05:49:02;;;;;;;4.22;0.95;;;9.60;93.10;;;;;;6377942;22;20476;-81
2022/02/23 05:51:30;;;;;;;3.65;0.73;;;9.60;93.00;;;;;;6351386;22;20037;-81
2022/02/23 05:53:56;;;;;;;3.97;1.45;;;9.70;93.00;;;;;;6379359;22;20004;-81
2022/02/23 05:56:22;;;;;;;3.10;1.15;;;9.70;92.90;;;;;;6380407;22;20002;-81
2022/02/23 05:58:48;;;;;;;4.20;1.10;;;9.70;92.80;;;;;;6354500;22;20010;-81
2022/02/23 06:01:14;;;;;;;1.95;0.95;;;9.80;92.70;;;;;;6354101;22;20010;-81
2022/02/23 06:03:40;;;;;;;2.83;1.13;;;9.80;92.60;;;;;;6353964;22;20017;-81
2022/02/23 06:06:06;;;;;;;3.30;1.10;;;9.80;92.60;;;;;;6380325;22;20308;-81
2022/02/23 06:08:32;;;;;;;3.35;1.05;;;9.80;92.60;;;;;;6353884;22;20033;-81
2022/02/23 06:10:57;;;;;;;3.13;1.05;;;9.90;92.30;;;;;;6327938;22;20017;-81
2022/02/23 06:13:23;;;;;;;3.63;0.95;;;9.90;92.20;;;;;;6380511;22;20090;-81
2022/02/23 06:15:49;;;;;;;2.88;1.05;;;9.90;91.90;;;;;;6301981;22;20281;-81
2022/02/23 06:18:15;;;;;;;5.47;1.00;;;9.90;91.70;;;;;;6353711;22;20029;-81
2022/02/23 06:20:41;;;;;;;4.32;1.20;;;10.00;91.70;;;;;;6353372;22;20013;-81
2022/02/23 06:23:07;;;;;;;2.70;1.00;;;10.00;91.50;;;;;;6380210;22;19998;-81
2022/02/23 06:25:33;;;;;;;2.40;0.80;;;10.10;91.00;;;;;;6302044;22;20013;-81
2022/02/23 06:28:02;;;;;;;3.03;0.80;;;10.10;90.30;;;;;;6353536;22;20013;-81
2022/02/23 06:30:28;;;;;;;2.97;1.05;;;10.20;90.30;;;;;;6353865;22;20006;-81
2022/02/23 06:32:54;;;;;;;2.80;0.93;;;10.20;90.00;;;;;;6353751;22;20006;-81
2022/02/23 06:35:21;;;;;;;1.48;0.68;;;10.20;90.00;;;;;;6327693;22;20006;-81
2022/02/23 06:37:47;;;;;;;2.03;0.63;;;10.30;89.50;;;;;;6379782;22;19990;-81
2022/02/23 06:40:13;;;;;;;3.25;0.80;;;10.40;89.90;;;;;;6380010;22;19998;-82
2022/02/23 06:42:40;;;;;;;6.63;1.80;;;10.40;90.40;;;;;;6379973;22;20205;-83
2022/02/23 06:45:07;;;;;;;3.25;1.30;;;10.30;91.50;;;;;;6379792;22;20033;-83
2022/02/23 06:47:33;;;;;;;3.85;1.60;;;10.20;92.30;;;;;;6351505;22;20242;-83
2022/02/23 06:49:59;;;;;;;5.80;1.73;;;10.00;93.30;;;;;;6351469;22;20010;-81
2022/02/23 06:52:30;;;;;;;3.45;1.10;;;9.90;94.70;;;;;;6324476;22;20067;-81
2022/02/23 06:54:57;;;;;;;4.45;1.13;;;9.70;94.80;;;;;;6325016;22;20298;-81
2022/02/23 06:57:23;;;;;;;7.47;1.10;;;9.50;94.10;;;;;;6325387;22;20006;-82
2022/02/23 06:59:49;;;;;;;6.50;1.67;;;9.40;93.50;;;;;;6351778;22;20237;-80
2022/02/23 07:02:15;;;;;;;5.37;1.10;;;9.30;93.90;;;;;;6325543;22;20026;-80
2022/02/23 07:04:41;;;;;;;7.00;2.33;;;9.20;94.00;;;;;;6325201;22;20042;-80
2022/02/23 07:07:08;;;;;;;3.85;1.00;;;9.20;94.30;;;;;;6325464;22;20226;-80
2022/02/23 07:09:34;;;;;;;2.92;1.05;;;9.20;93.40;;;;;;6325774;22;20010;-80
2022/02/23 07:12:04;;;;;;;5.40;1.25;;;9.10;93.40;;;;;;6351670;22;20006;-81
2022/02/23 07:14:30;;;;;;;3.83;1.10;;;9.10;92.90;;;;;;6351601;22;20014;-80
2022/02/23 07:16:55;;;;;;;8.45;1.10;;;9.10;92.20;;;;;;6351075;22;20002;-80
2022/02/23 07:19:24;;;;;;;12.80;2.05;;;9.10;91.90;;;;;;6323516;22;20007;-80
2022/02/23 07:21:50;;;;;;;6.65;1.08;;;9.20;91.10;;;;;;6326079;22;20010;-81
2022/02/23 07:24:16;;;;;;;2.97;1.13;;;9.20;91.20;;;;;;6325308;22;20030;-80
2022/02/23 07:26:42;;;;;;;3.58;1.20;;;9.20;91.30;;;;;;6327792;22;20298;-81
2022/02/23 07:29:07;;;;;;;2.22;0.98;;;9.30;91.60;;;;;;6378909;22;20171;-81
2022/02/23 07:31:34;;;;;;;7.30;0.98;;;9.50;91.60;;;;;;6351882;22;20026;-80
2022/02/23 07:34:00;;;;;;;3.45;1.35;;;9.50;91.20;;;;;;6326514;22;20006;-81
2022/02/23 07:36:26;;;;;;;6.07;1.40;;;9.50;90.90;;;;;;6326005;22;20007;-81
2022/02/23 07:38:52;;;;;;;3.97;1.20;;;9.60;91.00;;;;;;6299902;22;20059;-80
2022/02/23 07:41:22;;;;;;;1.90;0.95;;;9.50;89.90;;;;;;6378606;22;20075;-80
2022/02/23 07:43:50;;;;;;;8.63;1.20;;;9.40;89.50;;;;;;6327956;22;20040;-80
2022/02/23 07:46:16;;;;;;;4.95;1.42;;;9.30;89.70;;;;;;6310844;22;20121;-81
2022/02/23 07:48:42;;;;;;;5.95;1.15;;;9.30;90.00;;;;;;6293983;22;20002;-81
2022/02/23 07:51:08;;;;;;;4.35;1.20;;;9.30;89.30;;;;;;6347373;22;20003;-80
2022/02/23 07:53:34;;;;;;;5.22;1.73;;;9.30;89.70;;;;;;6294978;22;20003;-81
2022/02/23 07:56:00;;;;;;;6.15;1.00;;;9.40;88.40;;;;;;6294917;22;19995;-80
2022/02/23 07:58:26;;;;;;;5.18;1.10;;;9.50;84.60;;;;;;6269151;22;20007;-80
2022/02/23 08:00:52;;;;;;;2.13;0.82;;;9.50;85.60;;;;;;6268831;22;20037;-81
2022/02/23 08:03:18;;;;;;;5.78;1.02;;;9.60;84.50;;;;;;6294443;22;20363;-80
2022/02/23 08:05:44;;;;;;;5.13;0.98;;;9.60;84.30;;;;;;6294081;22;20074;-80
2022/02/23 08:08:09;;;;;;;6.68;1.20;;;9.70;83.50;;;;;;6268896;22;20018;-80
2022/02/23 08:10:35;;;;;;;8.20;1.83;;;9.70;83.90;;;;;;6320367;22;20006;-81
2022/02/23 08:13:05;;;;;;;5.40;1.70;;;9.80;84.00;;;;;;6294577;22;20240;-81
2022/02/23 08:21:01;;;;;;;5.85;1.60;;;9.90;80.10;;;;;;6320666;22;20062;-80
2022/02/23 08:23:27;;;;;;;4.97;1.35;;;9.90;79.30;;;;;;6295088;22;20056;-81
2022/02/23 08:25:52;;;;;;;5.65;1.70;;;9.90;79.90;;;;;;6269032;22;20069;-81
2022/02/23 08:28:19;;;;;;;4.95;2.03;;;9.90;80.30;;;;;;6294601;22;20030;-81
2022/02/23 08:30:48;;;;;;;4.70;1.58;;;10.00;80.30;;;;;;6294906;22;20018;-81
2022/02/23 08:33:14;;;;;;;5.78;1.30;;;10.00;79.90;;;;;;6348572;22;19998;-81
2022/02/23 08:35:41;;;;;;;6.88;2.08;;;10.10;79.00;;;;;;6294755;22;20015;-81
2022/02/23 08:38:11;;;;;;;3.15;1.58;;;10.20;78.90;;;;;;6294850;22;20014;-81
2022/02/23 08:40:42;;;;;;;4.13;1.40;;;10.40;79.10;;;;;;6294531;22;20007;-81
2022/02/23 08:43:08;;;;;;;6.60;1.60;;;10.50;76.70;;;;;;6294834;22;20070;-81
2022/02/23 08:45:34;;;;;;;7.05;1.42;;;10.50;75.00;;;;;;6295350;22;20007;-81
2022/02/23 08:48:03;;;;;;;4.88;1.83;;;10.60;76.00;;;;;;6325762;22;20009;-81
2022/02/23 08:50:30;;;;;;;5.32;1.23;;;10.70;74.10;;;;;;6352157;22;20184;-82
2022/02/23 08:52:56;;;;;;;6.72;1.20;;;10.60;71.70;;;;;;6352014;22;20006;-81
2022/02/23 08:55:22;;;;;;;9.52;1.75;;;10.70;71.40;;;;;;6326027;22;20007;-82
2022/02/23 08:57:48;;;;;;;9.97;1.57;;;10.70;67.50;;;;;;6326204;22;20002;-81
2022/02/23 09:00:14;;;;;;;6.40;1.75;;;10.80;68.70;;;;;;6300265;22;20274;-81
2022/02/23 09:02:40;;;;;;;8.30;1.70;;;11.00;66.70;;;;;;6325630;22;20298;-81
2022/02/23 09:05:06;;;;;;;6.63;1.45;;;10.90;66.00;;;;;;6326165;22;20011;-81
2022/02/23 09:07:32;;;;;;;5.00;1.77;;;10.70;65.00;;;;;;6352081;22;20030;-82
2022/02/23 09:09:58;;;;;;;9.85;2.28;;;10.60;64.60;;;;;;6326405;22;20076;-81
2022/02/23 09:12:24;;;;;;;12.95;1.77;;;10.60;64.50;;;;;;6325750;22;20011;-81
2022/02/23 09:14:51;;;;;;;6.82;1.20;;;10.60;66.00;;;;;;6325703;22;20298;-81
2022/02/23 09:17:17;;;;;;;4.72;1.67;;;10.50;65.80;;;;;;6351680;22;20305;-81
2022/02/23 09:19:43;;;;;;;5.55;1.35;;;10.50;65.40;;;;;;6299935;22;20075;-81
2022/02/23 09:22:09;;;;;;;7.20;2.60;;;10.50;66.20;;;;;;6325189;22;20126;-81
2022/02/23 09:24:35;;;;;;;10.50;1.95;;;10.50;66.20;;;;;;6350861;22;20025;-81
2022/02/23 09:27:02;;;;;;;11.50;1.40;;;10.50;65.60;;;;;;6324984;22;20006;-82
2022/02/23 09:29:29;;;;;;;13.07;2.63;;;10.60;64.50;;;;;;6353438;22;20038;-82
2022/02/23 09:31:55;;;;;;;10.15;2.30;;;10.70;63.70;;;;;;6352968;22;20085;-82
2022/02/23 09:34:23;;;;;;;6.93;1.55;;;10.60;64.10;;;;;;6301615;22;20055;-82
2022/02/23 09:36:51;;;;;;;6.80;1.95;;;10.60;64.80;;;;;;6327747;22;20002;-82
2022/02/23 09:39:18;;;;;;;14.70;2.45;;;10.90;65.60;;;;;;6353729;22;20306;-82
2022/02/23 09:41:45;;;;;;;;;;;11.00;64.80;;;;;;6328351;22;20018;-82
2022/02/23 09:44:14;;;;;;;;;;;11.30;63.70;;;;;;6328234;22;19902;-82
2022/02/23 09:46:41;;;;;;;9.10;1.27;;;11.50;61.20;;;;;;6363240;22;19910;-83
2022/02/23 09:49:07;;;;;;;10.80;2.30;;;11.50;59.30;;;;;;6353996;22;20297;-81
2022/02/23 09:51:33;;;;;;;10.73;1.55;;;11.50;58.10;;;;;;6379728;22;20002;-81
2022/02/23 09:53:59;;;;;;;9.65;1.92;;;11.50;58.50;;;;;;6379570;22;20018;-82
2022/02/23 09:56:27;;;;;;;8.70;1.92;;;11.50;58.00;;;;;;6301624;22;20246;-81
2022/02/23 09:58:55;;;;;;;10.90;2.40;;;11.40;57.50;;;;;;6353272;22;20202;-81
2022/02/23 10:01:23;;;;;;;9.25;2.42;;;11.60;58.00;;;;;;6328207;22;20017;-81
2022/02/23 10:03:51;;;;;;;11.75;2.05;;;11.80;57.90;;;;;;6378774;22;20001;-81
2022/02/23 10:06:28;;;;;;;13.27;2.80;;;12.00;57.80;;;;;;6379856;22;20034;-81
2022/02/23 10:09:12;;;;;;;8.27;1.98;;;12.10;57.50;;;;;;6324349;22;20286;-81
2022/02/23 10:11:42;;;;;;;12.65;2.65;;;12.10;56.70;;;;;;6352903;22;20025;-82
2022/02/23 10:14:10;;;;;;;8.95;2.28;;;12.00;56.20;;;;;;6379211;22;20107;-81
2022/02/23 10:16:39;;;;;;;6.05;1.48;;;11.90;56.70;;;;;;6353333;22;20013;-80
2022/02/23 10:19:05;;;;;;;9.93;2.28;;;11.80;56.10;;;;;;6382201;22;20010;-80
2022/02/23 10:21:59;;;;;;;7.60;1.63;;;11.80;57.30;;;;;;6354942;22;20026;-80
2022/02/23 10:24:26;;;;;;;8.07;2.25;;;12.00;55.90;;;;;;6258362;22;20038;-80
2022/02/23 10:26:53;;;;;;;;;;;12.20;56.30;;;;;;6258763;22;20071;-81
2022/02/23 10:29:25;;;;;;;10.45;2.13;;;12.40;56.80;;;;;;6233255;22;19899;-82
2022/02/23 10:31:51;;;;;;;8.00;1.85;;;12.60;55.30;;;;;;6258567;22;20026;-82
2022/02/23 10:34:24;;;;;;;14.40;2.47;;;12.70;56.10;;;;;;6233932;22;20016;-82
2022/02/23 10:37:07;;;;;;;8.63;1.88;;;12.90;55.20;;;;;;6259041;22;20003;-81
2022/02/23 10:39:35;;;;;;;9.65;2.17;;;13.20;55.10;;;;;;6283463;22;20011;-81
2022/02/23 10:42:09;;;;;;;9.07;1.85;;;13.40;55.60;;;;;;6257943;22;20353;-81
2022/02/23 10:44:39;;;;;;;4.88;1.63;;;13.60;53.40;;;;;;6258494;22;20042;-81
2022/02/23 10:47:06;;;;;;;13.65;2.47;;;13.70;53.60;;;;;;6232804;22;20299;-81
2022/02/23 10:49:32;;;;;;;8.25;1.63;;;13.60;53.30;;;;;;6233570;22;20011;-82
2022/02/23 10:52:06;;;;;;;6.40;1.70;;;13.70;53.00;;;;;;6233021;22;20074;-82
2022/02/23 10:54:34;;;;;;;6.68;1.73;;;13.60;52.80;;;;;;6258559;22;20073;-81
2022/02/23 10:56:59;;;;;;;5.18;1.92;;;13.40;53.30;;;;;;6233093;22;20000;-82
2022/02/23 10:59:25;;;;;;;6.65;1.95;;;13.40;53.40;;;;;;6208726;22;20015;-81
2022/02/23 11:01:51;;;;;;;7.55;2.30;;;13.40;53.30;;;;;;6319986;22;20010;-81
2022/02/23 11:04:21;;;;;;;6.93;2.17;;;13.30;53.50;;;;;;6352530;22;20010;-81
2022/02/23 11:06:52;;;;;;;9.73;2.20;;;13.30;53.80;;;;;;6378723;22;20006;-81
2022/02/23 11:09:18;;;;;;;8.45;1.90;;;13.30;53.20;;;;;;6353685;22;20073;-81
2022/02/23 11:11:44;;;;;;;8.10;1.80;;;13.30;53.90;;;;;;6379410;22;20008;-82
2022/02/23 11:14:11;;;;;;;6.75;1.98;;;13.30;53.50;;;;;;6352332;22;20014;-82
2022/02/23 11:16:38;;;;;;;9.98;1.95;;;13.30;53.30;;;;;;6353256;22;20022;-80
2022/02/23 11:19:05;;;;;;;9.48;2.60;;;13.40;52.80;;;;;;6301366;22;20074;-79
2022/02/23 11:21:34;;;;;;;6.35;2.03;;;13.30;51.60;;;;;;6351957;22;20057;-80
2022/02/23 11:24:03;;;;;;;10.73;1.20;;;13.20;52.50;;;;;;6301511;22;20025;-81
2022/02/23 11:26:32;;;;;;;7.25;1.75;;;13.20;52.50;;;;;;6378843;22;20347;-82
2022/02/23 11:29:21;;;;;;;7.65;2.13;;;13.20;52.30;;;;;;6352865;22;20077;-82
2022/02/23 11:31:53;;;;;;;7.53;1.63;;;13.20;51.60;;;;;;6378715;22;20006;-82
2022/02/23 11:34:22;;;;;;;7.13;2.33;;;13.30;51.80;;;;;;6378861;22;19998;-82
2022/02/23 11:36:52;;;;;;;5.53;1.27;;;13.30;51.40;;;;;;6379115;22;20029;-79
2022/02/23 11:39:19;;;;;;;6.68;1.77;;;13.00;51.20;;;;;;6352401;22;20065;-79
2022/02/23 11:41:54;;;;;;;9.13;2.22;;;13.00;52.20;;;;;;6352328;22;20006;-79
2022/02/23 11:44:26;;;;;;;5.72;1.30;;;13.20;52.40;;;;;;6378513;22;20006;-81
2022/02/23 11:46:52;;;;;;;8.02;2.08;;;13.30;51.20;;;;;;6378424;22;20073;-81
2022/02/23 11:49:28;;;;;;;6.97;1.55;;;13.40;51.20;;;;;;6378690;22;19998;-81
2022/02/23 11:52:13;;;;;;;5.30;1.40;;;13.30;50.80;;;;;;6351847;22;20006;-80
2022/02/23 11:54:58;;;;;;;5.22;1.63;;;13.40;50.30;;;;;;6379755;22;19999;-80
2022/02/23 11:57:54;;;;;;;6.57;1.50;;;13.40;50.80;;;;;;6378766;22;20308;-81
2022/02/23 12:00:29;;;;;;;4.72;1.63;;;13.50;51.00;;;;;;6378653;22;20305;-81
2022/02/23 12:03:06;;;;;;;7.97;1.73;;;13.60;50.50;;;;;;6378325;22;20007;-81
2022/02/23 12:05:40;;;;;;;6.13;1.40;;;13.60;51.30;;;;;;6378314;22;20006;-81
2022/02/23 12:08:27;;;;;;;9.75;1.92;;;13.60;49.60;;;;;;6352083;22;20006;-81
2022/02/23 12:10:53;;;;;;;5.10;1.85;;;13.60;50.20;;;;;;6378284;22;20056;-80
2022/02/23 12:13:35;;;;;;;7.80;1.40;;;13.50;50.00;;;;;;6326213;22;20006;-81
2022/02/23 12:16:41;;;;;;;6.10;1.80;;;13.40;49.80;;;;;;6326576;22;20198;-81
2022/02/23 12:19:11;;;;;;;8.23;1.60;;;13.30;50.00;;;;;;6352193;22;20002;-83
2022/02/23 12:21:54;;;;;;;7.15;1.67;;;13.20;50.80;;;;;;6352268;22;20011;-82
2022/02/23 12:24:22;;;;;;;8.63;1.77;;;13.40;50.60;;;;;;6378615;22;20061;-82
2022/02/23 12:26:53;;;;;;;7.85;1.48;;;13.50;49.80;;;;;;6378071;22;20006;-82
2022/02/23 12:29:25;;;;;;;11.48;3.70;;;13.50;49.50;;;;;;6378289;22;20006;-82
2022/02/23 12:31:52;;;;;;;14.23;3.50;;;13.70;49.00;;;;;;6352246;22;20034;-81
2022/02/23 12:34:25;;;;;;;13.77;2.10;;;13.70;49.30;;;;;;6378758;22;20002;-81
2022/02/23 12:36:53;;;;;;;9.52;2.10;;;13.50;48.60;;;;;;6327713;22;20225;-81
2022/02/23 12:39:22;;;;;;;7.47;2.25;;;13.50;48.40;;;;;;6352328;22;20006;-80
2022/02/23 12:41:56;;;;;;;7.50;2.58;;;13.50;48.40;;;;;;6352157;22;20030;-80
2022/02/23 12:44:23;;;;;;;7.07;1.70;;;13.40;48.00;;;;;;6378244;22;20010;-80
2022/02/23 12:46:52;;;;;;;6.50;2.17;;;13.50;48.40;;;;;;6377677;22;20014;-80
2022/02/23 12:49:20;;;;;;;7.55;2.58;;;13.50;48.30;;;;;;6351945;22;20304;-80
2022/02/23 12:51:46;;;;;;;7.47;2.28;;;13.50;48.00;;;;;;6352112;22;20029;-80
2022/02/23 12:54:14;;;;;;;8.60;1.98;;;13.60;48.50;;;;;;6351983;22;19995;-80
2022/02/23 12:56:42;;;;;;;8.18;1.40;;;13.60;48.10;;;;;;6378203;22;20002;-80
2022/02/23 12:59:17;;;;;;;5.28;1.50;;;13.60;47.80;;;;;;6378186;22;20002;-80
2022/02/23 13:01:54;;;;;;;7.63;1.48;;;13.70;47.50;;;;;;6378277;22;20009;-80
2022/02/23 13:04:44;;;;;;;6.43;1.88;;;13.70;47.40;;;;;;6378002;22;20014;-80
2022/02/23 13:07:13;;;;;;;6.57;1.80;;;13.70;47.80;;;;;;6351855;22;20010;-82
2022/02/23 13:09:42;;;;;;;4.78;2.10;;;13.80;47.90;;;;;;6379525;22;20044;-80
2022/02/23 13:12:10;;;;;;;4.85;1.88;;;13.80;47.20;;;;;;6377131;22;20007;-79
2022/02/23 13:14:37;;;;;;;30.40;3.45;;;13.80;47.30;;;;;;6325912;22;20014;-80
2022/02/23 13:17:08;;;;;;;3.55;1.23;;;13.80;47.30;;;;;;6377949;22;20193;-80
2022/02/23 13:19:36;;;;;;;4.97;1.60;;;13.90;47.80;;;;;;6378037;22;20379;-80
2022/02/23 13:22:03;;;;;;;6.38;1.65;;;14.10;47.70;;;;;;6378244;22;20530;-80
2022/02/23 13:24:41;;;;;;;7.25;1.75;;;14.20;46.90;;;;;;6352019;22;20275;-79
2022/02/23 13:27:12;;;;;;;5.32;1.60;;;14.30;46.70;;;;;;6352658;22;20053;-79
2022/02/23 13:29:40;;;;;;;5.45;1.63;;;14.30;46.30;;;;;;6378992;22;20036;-79
2022/02/23 13:32:12;;;;;;;13.32;1.70;;;14.20;45.40;;;;;;6378817;22;20078;-80
2022/02/23 13:34:39;;;;;;;8.63;1.85;;;14.00;45.50;;;;;;6378869;22;20002;-80
2022/02/23 13:37:16;;;;;;;;;;;14.00;46.40;;;;;;6353303;22;20033;-79
2022/02/23 13:40:03;;;;;;;7.07;1.50;;;14.00;46.10;;;;;;6378986;22;20159;-79
2022/02/23 13:42:32;;;;;;;6.30;2.05;;;14.00;46.10;;;;;;6378976;22;20227;-80
2022/02/23 13:45:17;;;;;;;8.55;1.52;;;14.00;45.90;;;;;;6353230;22;20029;-79
2022/02/23 13:47:56;;;;;;;9.15;2.20;;;14.10;45.60;;;;;;6379182;22;20041;-80
2022/02/23 13:50:24;;;;;;;3.25;1.30;;;14.10;45.40;;;;;;6351723;22;20007;-80
2022/02/23 13:53:01;;;;;;;7.35;1.85;;;14.00;44.80;;;;;;6377782;22;20003;-79
2022/02/23 13:55:29;;;;;;;4.35;1.70;;;14.00;44.70;;;;;;6378493;22;20004;-80
2022/02/23 13:57:58;;;;;;;10.95;1.77;;;14.00;44.20;;;;;;6378788;22;20304;-80
2022/02/23 14:00:28;;;;;;;4.32;1.52;;;14.00;44.70;;;;;;6378169;22;20003;-81
2022/02/23 14:03:13;;;;;;;4.47;1.02;;;13.90;44.30;;;;;;6378574;22;20202;-81
2022/02/23 14:06:05;;;;;;;5.35;1.50;;;14.10;44.90;;;;;;6378417;22;20024;-81
2022/02/23 14:08:34;;;;;;;7.60;2.30;;;14.10;44.40;;;;;;6257992;22;20008;-80
2022/02/23 14:11:16;;;;;;;7.22;2.10;;;14.00;43.90;;;;;;6282076;22;20293;-79
2022/02/23 14:13:50;;;;;;;7.50;1.63;;;13.90;44.00;;;;;;6256649;22;20299;-80
2022/02/23 14:16:17;;;;;;;5.13;1.23;;;13.90;44.20;;;;;;6234917;22;20015;-81
2022/02/23 14:18:51;;;;;;;6.07;1.90;;;13.90;44.50;;;;;;6233755;22;20062;-81
2022/02/23 14:21:18;;;;;;;6.97;1.50;;;13.90;44.00;;;;;;6259302;22;20282;-80
2022/02/23 14:23:56;;;;;;;9.90;1.90;;;14.00;43.80;;;;;;6209054;22;20012;-81
2022/02/23 14:26:24;;;;;;;7.53;1.30;;;14.00;44.20;;;;;;6258415;22;20008;-80
2022/02/23 14:29:01;;;;;;;8.15;1.60;;;14.00;44.20;;;;;;6182956;22;20070;-81
2022/02/23 14:31:44;;;;;;;3.55;1.05;;;14.00;44.50;;;;;;6258612;22;20042;-80
2022/02/23 14:34:17;;;;;;;3.17;1.27;;;14.10;45.00;;;;;;6259381;22;20256;-81
2022/02/23 14:36:44;;;;;;;13.48;4.68;;;14.20;44.80;;;;;;6259129;22;20011;-80
2022/02/23 14:39:11;;;;;;;12.38;2.80;;;14.30;44.90;;;;;;6259721;22;20004;-80
2022/02/23 14:41:38;;;;;;;7.63;1.48;;;14.40;44.90;;;;;;6234143;22;20026;-80
2022/02/23 14:44:07;;;;;;;7.03;1.75;;;14.50;44.80;;;;;;6259378;22;20188;-81
2022/02/23 14:46:35;;;;;;;4.28;1.20;;;14.30;45.00;;;;;;6350110;22;20018;-81
2022/02/23 14:49:01;;;;;;;6.32;1.27;;;14.30;45.20;;;;;;6379011;22;20017;-80
2022/02/23 14:51:27;;;;;;;5.22;1.63;;;14.30;46.10;;;;;;6352112;22;20010;-81
2022/02/23 14:53:53;;;;;;;10.45;1.63;;;14.30;45.70;;;;;;6379094;22;20022;-82
2022/02/23 14:56:20;;;;;;;5.57;2.05;;;14.40;45.70;;;;;;6352381;22;20049;-81
2022/02/23 14:58:46;;;;;;;4.03;1.35;;;14.30;45.20;;;;;;6352585;22;20005;-82
2022/02/23 15:01:13;;;;;;;7.57;1.93;;;14.20;45.80;;;;;;6326163;22;20006;-80
2022/02/23 15:03:40;;;;;;;4.50;1.33;;;14.10;46.00;;;;;;6352688;22;20591;-81
2022/02/23 15:06:06;;;;;;;5.25;1.35;;;14.00;46.70;;;;;;6352137;22;20010;-81
2022/02/23 15:08:32;;;;;;;6.78;1.60;;;14.10;47.10;;;;;;6378418;22;20024;-82
2022/02/23 15:10:58;;;;;;;6.35;1.38;;;14.20;47.00;;;;;;6378755;22;20341;-82
2022/02/23 15:13:24;;;;;;;6.93;1.42;;;14.20;46.40;;;;;;6379291;22;20351;-82
2022/02/23 15:15:52;;;;;;;6.22;1.48;;;14.20;47.10;;;;;;6379288;22;20034;-81
2022/02/23 15:18:18;;;;;;;4.80;1.50;;;14.20;46.90;;;;;;6352784;22;20034;-81
2022/02/23 15:20:44;;;;;;;6.22;1.48;;;14.10;46.60;;;;;;6379330;22;20032;-81
2022/02/23 15:23:10;;;;;;;3.45;1.00;;;13.90;46.80;;;;;;6352044;22;20014;-81
2022/02/23 15:25:36;;;;;;;9.52;2.28;;;13.90;47.20;;;;;;6351953;22;20002;-81
2022/02/23 15:28:02;;;;;;;6.45;1.70;;;14.00;47.30;;;;;;6352563;22;20033;-81
2022/02/23 15:30:29;;;;;;;4.10;1.50;;;14.00;47.40;;;;;;6326097;22;20057;-81
2022/02/23 15:32:55;;;;;;;4.80;1.85;;;14.00;47.30;;;;;;6351969;22;20010;-82
2022/02/23 15:35:21;;;;;;;7.57;1.90;;;14.00;47.00;;;;;;6352781;22;20011;-81
2022/02/23 15:37:48;;;;;;;5.70;1.70;;;14.00;47.10;;;;;;6352518;22;20006;-80
2022/02/23 15:40:14;;;;;;;5.15;1.42;;;14.10;47.50;;;;;;6352880;22;20220;-81
2022/02/23 15:42:40;;;;;;;22.60;1.40;;;13.90;47.60;;;;;;6378420;22;20041;-80
2022/02/23 15:45:07;;;;;;;9.30;1.60;;;13.80;48.10;;;;;;6378833;22;19995;-80
2022/02/23 15:47:33;;;;;;;7.88;1.42;;;13.60;48.10;;;;;;6352053;22;20018;-81
2022/02/23 15:49:59;;;;;;;6.35;1.50;;;13.50;48.10;;;;;;6326568;22;20210;-82
2022/02/23 15:52:26;;;;;;;4.57;2.10;;;13.40;48.60;;;;;;6352542;22;20006;-81
2022/02/23 15:54:53;;;;;;;11.27;4.95;;;13.30;48.90;;;;;;6378949;22;20070;-80
2022/02/23 15:57:19;;;;;;;6.73;2.13;;;13.10;49.10;;;;;;6352776;22;20006;-81
2022/02/23 15:59:45;;;;;;;5.50;1.77;;;13.00;49.40;;;;;;6352256;22;20048;-82
2022/02/23 16:02:11;;;;;;;5.72;1.50;;;12.80;49.90;;;;;;6352476;22;20030;-81
2022/02/23 16:04:37;;;;;;;11.00;3.17;;;12.70;50.20;;;;;;6352254;22;20045;-80
2022/02/23 16:07:03;;;;;;;5.75;1.60;;;12.70;50.60;;;;;;6378503;22;20006;-81
2022/02/23 16:09:30;;;;;;;6.05;1.33;;;12.60;50.80;;;;;;6378556;22;20017;-79
2022/02/23 16:11:56;;;;;;;6.83;1.70;;;12.50;51.00;;;;;;6351541;22;20041;-80
2022/02/23 16:14:22;;;;;;;5.30;1.50;;;12.40;51.20;;;;;;6325361;22;20007;-81
2022/02/23 16:17:00;;;;;;;7.63;1.98;;;12.40;51.40;;;;;;6378580;22;20280;-81
2022/02/23 16:19:28;;;;;;;7.63;1.90;;;12.40;51.80;;;;;;6377982;22;20002;-80
2022/02/23 16:21:56;;;;;;;9.60;2.22;;;12.30;52.10;;;;;;6352336;22;20007;-81
2022/02/23 16:24:22;;;;;;;6.53;1.52;;;12.20;52.60;;;;;;6352168;22;20030;-80
2022/02/23 16:26:49;;;;;;;4.55;1.55;;;12.10;52.80;;;;;;6351426;22;20016;-81
2022/02/23 16:29:16;;;;;;;9.13;1.67;;;12.00;53.40;;;;;;6352507;22;20333;-80
2022/02/23 16:31:42;;;;;;;10.70;2.38;;;12.00;53.80;;;;;;6299755;22;20147;-81
2022/02/23 16:34:09;;;;;;;8.00;1.75;;;11.90;54.30;;;;;;6326259;22;20003;-79
2022/02/23 16:36:35;;;;;;;7.97;2.20;;;11.90;55.10;;;;;;6379550;22;20003;-81
2022/02/23 16:39:01;;;;;;;8.00;2.33;;;11.80;54.60;;;;;;6299880;22;20090;-80
2022/02/23 16:41:27;;;;;;;10.32;1.58;;;11.80;55.00;;;;;;6378077;22;20014;-80
2022/02/23 16:43:53;;;;;;;8.57;2.03;;;11.70;55.30;;;;;;6378320;22;20244;-80
2022/02/23 16:46:21;;;;;;;7.47;2.00;;;11.70;55.60;;;;;;6377847;22;20037;-81
2022/02/23 16:48:48;;;;;;;10.05;2.00;;;11.60;55.80;;;;;;6378043;22;20059;-80